createdAt,value
2022-12-12T00:07:19.382Z,-4.27
2022-12-12T00:17:24.710Z,-4.57
2022-12-12T00:27:19.447Z,-4.69
2022-12-12T00:37:19.425Z,-5.12
2022-12-12T00:47:19.475Z,-5.46
2022-12-12T00:57:19.445Z,-5.82
2022-12-12T01:07:19.500Z,-6.17
2022-12-12T01:17:19.496Z,-6.36
2022-12-12T01:27:19.524Z,-6.55
2022-12-12T01:37:19.517Z,-6.73
2022-12-12T01:47:19.565Z,-6.78
2022-12-12T01:57:19.537Z,-6.93
2022-12-12T02:07:19.598Z,-7.1
2022-12-12T02:17:19.599Z,-7.27
2022-12-12T02:27:19.625Z,-7.42
2022-12-12T02:37:19.615Z,-7.55
2022-12-12T02:47:19.672Z,-7.66
2022-12-12T02:57:19.662Z,-7.63
2022-12-12T03:07:19.696Z,-8.02
2022-12-12T03:17:19.669Z,-7.98
2022-12-12T03:27:19.693Z,-8.07
2022-12-12T03:37:19.708Z,-8.11
2022-12-12T03:47:19.752Z,-8.24
2022-12-12T03:57:19.732Z,-8.28
2022-12-12T04:07:19.785Z,-8.41
2022-12-12T04:17:19.775Z,-8.44
2022-12-12T04:27:19.826Z,-8.83
2022-12-12T04:37:19.823Z,-8.85
2022-12-12T04:47:19.883Z,-8.89
2022-12-12T04:57:19.829Z,-8.94
2022-12-12T05:07:19.885Z,-9.15
2022-12-12T05:17:19.900Z,-8.88
2022-12-12T05:27:19.945Z,-9.32
2022-12-12T05:37:19.908Z,-9.32
2022-12-12T05:47:19.991Z,-9.42
2022-12-12T05:57:19.953Z,-9.24
2022-12-12T06:07:20.012Z,-9.19
2022-12-12T06:17:19.997Z,-9.27
2022-12-12T06:27:20.047Z,-9.3
2022-12-12T06:37:20.032Z,-9.46
2022-12-12T06:47:20.085Z,-9.36
2022-12-12T06:57:20.066Z,-9.28
2022-12-12T07:07:20.124Z,-9.3
2022-12-12T07:17:20.101Z,-9.14
2022-12-12T07:27:21.871Z,-9.05
2022-12-12T07:37:20.147Z,-8.62
2022-12-12T07:47:20.186Z,-8.52
2022-12-12T07:57:20.166Z,-8.35
2022-12-12T08:07:20.225Z,-7.91
2022-12-12T08:17:20.190Z,-7.65
2022-12-12T08:27:20.239Z,-7.31
2022-12-12T08:37:20.221Z,-6.78
2022-12-12T08:47:20.265Z,-5.77
2022-12-12T08:57:25.712Z,-4.9
2022-12-12T09:07:20.297Z,-4.8
2022-12-12T09:17:20.246Z,-4.92
2022-12-12T09:27:20.307Z,-3.89
2022-12-12T09:37:20.283Z,-3.12
2022-12-12T09:47:20.317Z,-2.02
2022-12-12T09:57:20.304Z,-2.77
2022-12-12T10:07:20.332Z,-2.62
2022-12-12T10:17:20.308Z,-1.4
2022-12-12T10:27:20.352Z,-1.3
2022-12-12T10:37:20.321Z,-1.05
2022-12-12T10:47:20.384Z,-0.14
2022-12-12T10:57:20.700Z,-0.06
2022-12-12T11:07:20.472Z,-1.18
2022-12-12T11:17:20.378Z,-2.39
2022-12-12T11:27:20.425Z,-3
2022-12-12T11:37:20.392Z,-3.13
2022-12-12T11:47:20.424Z,-3.19
2022-12-12T11:57:20.422Z,-3.24
2022-12-12T12:07:20.471Z,-3.24
2022-12-12T12:17:20.444Z,-3.26
2022-12-12T12:27:20.479Z,-3.24
2022-12-12T12:37:20.459Z,-3.19
2022-12-12T12:47:20.476Z,-3.2
2022-12-12T12:57:20.481Z,-3.31
2022-12-12T13:07:20.506Z,-3.52
2022-12-12T13:17:20.530Z,-3.59
2022-12-12T13:27:20.547Z,-3.55
2022-12-12T13:37:20.510Z,-3.81
2022-12-12T13:47:20.663Z,-4.17
2022-12-12T13:57:20.602Z,-4.06
2022-12-12T14:07:20.627Z,-4.03
2022-12-12T14:17:20.555Z,-4.17
2022-12-12T14:37:20.621Z,-4.82
2022-12-12T14:47:20.611Z,-4.96
2022-12-12T14:57:20.660Z,-5.24
2022-12-12T15:07:20.634Z,-5.68
2022-12-12T15:17:20.675Z,-6.12
2022-12-12T15:27:20.667Z,-5.85
2022-12-12T15:37:20.710Z,-6.02
2022-12-12T15:47:20.707Z,-6.41
2022-12-12T15:57:20.784Z,-6.88
2022-12-12T16:07:20.731Z,-7.22
2022-12-12T16:17:20.795Z,-7.19
2022-12-12T16:27:20.751Z,-7.64
2022-12-12T16:37:20.796Z,-7.87
2022-12-12T16:47:20.797Z,-7.59
2022-12-12T16:57:20.933Z,-7.94
2022-12-12T17:07:20.822Z,-8.32
2022-12-12T17:17:20.974Z,-8.3
2022-12-12T17:27:20.869Z,-8.46
2022-12-12T17:37:20.921Z,-8.69
2022-12-12T17:47:20.904Z,-8.9
2022-12-12T17:57:25.199Z,-8.49
2022-12-12T18:07:20.929Z,-8.44
2022-12-12T18:17:21.063Z,-8.55
2022-12-12T18:27:20.974Z,-8.99
2022-12-12T18:37:21.019Z,-9.29
2022-12-12T18:47:20.993Z,-9.35
2022-12-12T18:57:21.043Z,-9.74
2022-12-12T19:07:21.221Z,-9.77
2022-12-12T19:17:25.574Z,-9.81
2022-12-12T19:27:21.076Z,-9.47
2022-12-12T19:37:21.116Z,-9.43
2022-12-12T19:47:21.109Z,-9.43
2022-12-12T19:57:21.150Z,-9.24
2022-12-12T20:07:21.166Z,-9.66
2022-12-12T20:17:21.190Z,-9.85
2022-12-12T20:27:21.205Z,-9.77
2022-12-12T20:37:21.237Z,-10.1
2022-12-12T20:47:21.228Z,-9.67
2022-12-12T20:57:30.208Z,-9.95
2022-12-12T21:07:21.239Z,-9.71
2022-12-12T21:17:21.324Z,-9.96
2022-12-12T21:27:21.294Z,-9.83
2022-12-12T21:37:21.364Z,-9.92
2022-12-12T21:47:21.370Z,-10.41
2022-12-12T21:57:24.753Z,-10.32
2022-12-12T22:07:21.430Z,-10.34
2022-12-12T22:17:21.438Z,-10.41
2022-12-12T22:27:21.434Z,-10.31
2022-12-12T22:37:21.512Z,-10.49
2022-12-12T22:47:21.471Z,-10.8
2022-12-12T22:57:21.521Z,-10.86
2022-12-12T23:07:21.533Z,-10.78
2022-12-12T23:17:21.597Z,-10.77
2022-12-12T23:27:21.560Z,-10.87
2022-12-12T23:37:21.614Z,-10.99
2022-12-12T23:47:21.589Z,-11.12
2022-12-12T23:57:21.668Z,-11.33
